Terminal Aerodrome Forecast
Issued by NWS Boise, ID

Home | Current Version | Previous Version | Text Only | Print | Product List | Glossary On
Versions: 1 2 3 4 5 6 7 8 9 10 11 12 13 14 15 16
000
FTUS45 KBOI 191129
TAFBOI
TAF
KBOI 191129Z 1912/2012 13008KT P6SM VCSH BKN040
     FM192100 30010KT 6SM -SHRA SCT015 BKN025
     FM200100 14006KT P6SM SCT030 BKN050=

USA.gov is the U.S. government's official web portal to all federal, state and local government web resources and services.